To NAV CANADA Home Page Login to a new session Search on AWWS site Feedback and Comments Disclaimer Vers la page française équivalente Tips FAQ What's new on the site To the Forecasts and Observations / NOTAM section To "File a Flight Plan" website Publications and other links Update of the User's profile FIC Telephone Numbers My Weather Data Folder Route Weather Data Regional Weather Data Local Weather Data To the Forecasts and Observations / NOTAM section
Request Generated 05/05/2016 at 18:05:08 UTC . Weather information available at that time is displayed.

METAR/TAF

LA RONGE/LA RONGE (BARBER FIELD)/SK    

METAR CYVC 051700Z 32010G17KT 15SM BKN050 20/04 A2973 RMK SC7 FU
SLP071 DENSITY ALT 2300FT=
METAR CYVC 051600Z 32008KT 300V360 15SM BKN050 20/04 A2972 RMK SC7 FU
SLP070 DENSITY ALT 2200FT=
METAR CYVC 051500Z 30011KT 15SM OVC050 17/03 A2971 RMK SC8 FU PRESRR
SLP068 DENSITY ALT 2000FT=

TAF CYVC 051238Z 0513/0601 32010KT P6SM FEW120 SCT200 TEMPO 0513/0516
4SM FU
FM052000 32012KT P6SM -SHRA BKN050 OVC100
RMK NXT FCST BY 051900Z=
Your time UTC time
Weather data provided by Environment Canada and NAV CANADA